Raccoon, Illinois
Current Conditions -  °F | °C
As of 6:35 PM on Saturday 25 Oct 2014 (Local Time) from KENL Reporting Station
Clear Clear  
Wind Chill: 64°   Ceiling: Unl
Heat Index: 64°   Visibility: 10mi
Dew Point: 53°   Wind: 0mph
Humidity: 67%   Direction: NA
Pressure: 30"   Gusts: NA
Location:  38.5134°N, 89.1673°W
Report Text: KENL 252335Z AUTO 00000KT 10SM CLR 18/12 A3000 RMK AO2 T01800117
Loading
Personal Weather Stations






























Interactive Weather Map New forecast layout! Learn more

10-Day Weather Forecast

Advertisements
Track Severe Weather on mobile